Time;durP1;ratioP1;P1;durP2;ratioP2;P2;SDS_P1;SDS_P2;PMS_P1;PMS_P2;Temp;Humidity;BMP_temperature;BMP_pressure;BME280_temperature;BME280_humidity;BME280_pressure;Samples;Min_cycle;Max_cycle;Signal;HPM_P1;HPM_P2
2022/01/29 00:01:41;;;;;;;;;;;;;;;4.35;100.00;102637.91;2568736;30;138303;-37
2022/01/29 00:04:11;;;;;;;;;;;;;;;4.34;100.00;102630.78;2568541;30;137961;-37
2022/01/29 00:06:38;;;;;;;;;;;;;;;4.35;100.00;102631.63;2568497;30;138317;-37
2022/01/29 00:09:08;;;;;;;;;;;;;;;4.35;100.00;102631.63;2568652;30;137366;-38
2022/01/29 00:11:36;;;;;;;;;;;;;;;4.37;100.00;102632.38;2567507;30;139318;-37
2022/01/29 00:14:06;;;;;;;;;;;;;;;4.36;100.00;102615.31;2567106;30;137205;-37
2022/01/29 00:16:34;;;;;;;;;;;;;;;4.34;100.00;102617.28;2567153;30;138818;-37
2022/01/29 00:19:02;;;;;;;;;;;;;;;4.44;100.00;102604.72;2567793;30;137054;-37
2022/01/29 00:21:30;;;;;;;;;;;;;;;4.42;100.00;102598.56;2567022;30;138309;-37
2022/01/29 00:23:58;;;;;;;;;;;;;;;4.42;100.00;102590.47;2567718;30;137279;-37
2022/01/29 00:26:27;;;;;;;;;;;;;;;4.45;100.00;102589.38;2570465;30;138259;-37
2022/01/29 00:28:57;;;;;;;;;;;;;;;4.50;100.00;102586.25;2568435;30;137911;-38
2022/01/29 00:31:24;;;;;;;;;;;;;;;4.52;100.00;102584.31;2569221;30;138476;-37
2022/01/29 00:33:52;;;;;;;;;;;;;;;4.56;100.00;102591.16;2566795;30;136975;-38
2022/01/29 00:36:20;;;;;;;;;;;;;;;4.54;100.00;102587.72;2570206;30;138929;-37
2022/01/29 00:38:48;;;;;;;;;;;;;;;4.55;100.00;102574.06;2568807;30;137163;-37
2022/01/29 00:41:16;;;;;;;;;;;;;;;4.62;100.00;102582.53;2566860;30;138536;-37
2022/01/29 00:43:44;;;;;;;;;;;;;;;4.61;100.00;102584.34;2565583;30;137553;-38
2022/01/29 00:46:11;;;;;;;;;;;;;;;4.64;100.00;102587.78;2568935;30;139111;-37
2022/01/29 00:48:40;;;;;;;;;;;;;;;4.61;100.00;102584.34;2568335;30;136992;-38
2022/01/29 00:51:27;;;;;;;;;;;;;;;4.64;100.00;102582.38;2567517;30;139113;-38
2022/01/29 00:53:55;;;;;;;;;;;;;;;4.67;100.00;102576.75;2568044;30;137970;-37
2022/01/29 00:56:23;;;;;;;;;;;;;;;4.63;100.00;102570.72;2567914;30;138084;-38
2022/01/29 00:58:50;;;;;;;;;;;;;;;4.65;100.00;102549.81;2568020;30;136912;-38
2022/01/29 01:01:18;;;;;;;;;;;;;;;4.65;100.00;102560.63;2567450;30;138349;-38
2022/01/29 01:03:46;;;;;;;;;;;;;;;4.68;100.00;102551.41;2568772;30;138079;-38
2022/01/29 01:06:14;;;;;;;;;;;;;;;4.71;100.00;102534.94;2567459;30;138361;-38
2022/01/29 01:08:42;;;;;;;;;;;;;;;4.71;100.00;102530.34;2566860;30;137523;-38
2022/01/29 01:11:10;;;;;;;;;;;;;;;4.73;100.00;102509.44;2567547;30;139159;-38
2022/01/29 01:13:38;;;;;;;;;;;;;;;4.71;100.00;102508.72;2567937;30;137062;-38
2022/01/29 01:16:05;;;;;;;;;;;;;;;4.73;100.00;102492.38;2567584;30;138114;-37
2022/01/29 01:18:33;;;;;;;;;;;;;;;4.75;100.00;102493.94;2568113;30;137746;-40
2022/01/29 01:21:01;;;;;;;;;;;;;;;4.73;100.00;102493.22;2567726;30;137191;-40
2022/01/29 01:23:29;;;;;;;;;;;;;;;4.70;100.00;102517.00;2568848;30;137067;-40
2022/01/29 01:25:58;;;;;;;;;;;;;;;4.75;100.00;102510.16;2568129;30;138350;-39
2022/01/29 01:28:26;;;;;;;;;;;;;;;4.71;100.00;102503.31;2566246;30;137871;-40
2022/01/29 01:30:53;;;;;;;;;;;;;;;4.71;100.00;102516.84;2568309;30;139338;-40
2022/01/29 01:33:21;;;;;;;;;;;;;;;4.73;100.00;102511.31;2568772;30;136791;-40
2022/01/29 01:35:57;;;;;;;;;;;;;;;4.75;100.00;102518.28;2567569;30;138721;-40
2022/01/29 01:38:50;;;;;;;;;;;;;;;4.76;100.00;102511.03;2568966;30;137201;-40
2022/01/29 01:41:16;;;;;;;;;;;;;;;4.74;100.00;102489.53;2567947;30;138152;-40
2022/01/29 01:43:44;;;;;;;;;;;;;;;4.73;100.00;102484.28;2569450;30;138372;-40
2022/01/29 01:46:12;;;;;;;;;;;;;;;4.74;100.00;102472.47;2569975;30;138106;-40
2022/01/29 01:48:40;;;;;;;;;;;;;;;4.75;100.00;102477.72;2567522;30;137129;-40
2022/01/29 01:51:08;;;;;;;;;;;;;;;4.76;100.00;102478.59;2568956;30;139109;-40
2022/01/29 01:53:36;;;;;;;;;;;;;;;4.73;100.00;102471.59;2566875;30;136787;-40
2022/01/29 01:56:04;;;;;;;;;;;;;;;4.75;100.00;102468.78;2569234;30;138996;-40
2022/01/29 01:58:32;;;;;;;;;;;;;;;4.71;100.00;102451.09;2568016;30;137627;-40
2022/01/29 02:01:00;;;;;;;;;;;;;;;4.73;100.00;102458.06;2569131;30;138455;-40
2022/01/29 02:03:28;;;;;;;;;;;;;;;4.74;100.00;102454.38;2568420;30;137068;-40
2022/01/29 02:05:56;;;;;;;;;;;;;;;4.79;100.00;102451.28;2568106;30;139018;-40
2022/01/29 02:08:24;;;;;;;;;;;;;;;4.79;100.00;102442.31;2569576;30;137504;-40
2022/01/29 02:10:52;;;;;;;;;;;;;;;4.78;100.00;102437.91;2567081;30;137872;-40
2022/01/29 02:13:19;;;;;;;;;;;;;;;4.81;100.00;102413.31;2569890;30;137841;-40
2022/01/29 02:15:47;;;;;;;;;;;;;;;4.81;100.00;102405.19;2569342;30;138342;-40
2022/01/29 02:18:15;;;;;;;;;;;;;;;4.82;100.00;102413.16;2567823;30;137159;-40
2022/01/29 02:20:44;;;;;;;;;;;;;;;4.84;100.00;102413.03;2567847;30;138432;-40
2022/01/29 02:23:12;;;;;;;;;;;;;;;4.80;100.00;102414.28;2568932;30;137015;-40
2022/01/29 02:25:40;;;;;;;;;;;;;;;4.82;100.00;102423.13;2568044;30;139166;-40
2022/01/29 02:28:09;;;;;;;;;;;;;;;4.83;100.00;102408.59;2568538;30;137903;-40
2022/01/29 02:30:39;;;;;;;;;;;;;;;4.77;100.00;102414.53;2565875;30;138290;-40
2022/01/29 02:33:10;;;;;;;;;;;;;;;4.75;100.00;102415.53;2568912;30;136664;-40
2022/01/29 02:35:42;;;;;;;;;;;;;;;4.82;100.00;102405.03;2568291;30;139389;-40
2022/01/29 02:38:11;;;;;;;;;;;;;;;4.86;100.00;102401.06;2567519;30;137132;-40
2022/01/29 02:40:48;;;;;;;;;;;;;;;4.84;100.00;102402.22;2568105;30;138593;-40
2022/01/29 02:43:18;;;;;;;;;;;;;;;4.83;100.00;102389.69;2566226;30;137529;-40
2022/01/29 02:45:47;;;;;;;;;;;;;;;4.82;100.00;102388.81;2568559;30;139094;-40
2022/01/29 02:48:15;;;;;;;;;;;;;;;4.81;100.00;102375.44;2568921;30;137187;-40
2022/01/29 02:50:43;;;;;;;;;;;;;;;4.83;100.00;102374.28;2566353;30;139002;-40
2022/01/29 02:53:10;;;;;;;;;;;;;;;4.83;100.00;102366.19;2569043;30;136786;-40
2022/01/29 02:55:38;;;;;;;;;;;;;;;4.78;100.00;102364.91;2567573;30;138943;-40
2022/01/29 02:58:06;;;;;;;;;;;;;;;4.80;100.00;102365.63;2567898;30;137212;-40
2022/01/29 03:00:35;;;;;;;;;;;;;;;4.78;100.00;102356.78;2569092;30;138299;-40
2022/01/29 03:03:03;;;;;;;;;;;;;;;4.77;100.00;102360.44;2569000;30;137125;-40
2022/01/29 03:05:31;;;;;;;;;;;;;;;4.78;100.00;102356.78;2568426;30;137305;-40
2022/01/29 03:07:59;;;;;;;;;;;;;;;4.79;100.00;102345.81;2569038;30;137896;-40
2022/01/29 03:10:28;;;;;;;;;;;;;;;4.78;100.00;102345.97;2569525;30;137500;-40
2022/01/29 03:12:56;;;;;;;;;;;;;;;4.82;100.00;102342.00;2568465;30;137744;-40
2022/01/29 03:15:24;;;;;;;;;;;;;;;4.77;100.00;102330.69;2568513;30;137507;-40
2022/01/29 03:17:52;;;;;;;;;;;;;;;4.80;100.00;102335.88;2569667;30;136917;-40
2022/01/29 03:20:19;;;;;;;;;;;;;;;4.80;100.00;102331.28;2567861;30;138426;-40
2022/01/29 03:22:47;;;;;;;;;;;;;;;4.80;100.00;102325.88;2568255;30;138345;-40
2022/01/29 03:25:16;;;;;;;;;;;;;;;4.78;100.00;102317.06;2568898;30;138170;-40
2022/01/29 03:27:44;;;;;;;;;;;;;;;4.81;100.00;102324.06;2567999;30;137011;-40
2022/01/29 03:30:12;;;;;;;;;;;;;;;4.79;100.00;102321.47;2569718;30;138446;-40
2022/01/29 03:32:40;;;;;;;;;;;;;;;4.79;100.00;102316.06;2569359;30;137743;-40
2022/01/29 03:35:08;;;;;;;;;;;;;;;4.78;100.00;102319.75;2569358;30;139091;-40
2022/01/29 03:37:36;;;;;;;;;;;;;;;4.78;100.00;102319.75;2569192;30;137118;-40
2022/01/29 03:40:06;;;;;;;;;;;;;;;4.78;100.00;102317.06;2568791;30;139330;-40
2022/01/29 03:42:40;;;;;;;;;;;;;;;4.75;100.00;102310.06;2568581;30;137324;-40
2022/01/29 03:45:09;;;;;;;;;;;;;;;4.79;100.00;102309.81;2569309;30;138432;-40
2022/01/29 03:47:37;;;;;;;;;;;;;;;4.78;100.00;102306.25;2568740;30;137880;-40
2022/01/29 03:50:05;;;;;;;;;;;;;;;4.78;100.00;102311.66;2566067;30;138188;-40
2022/01/29 03:52:32;;;;;;;;;;;;;;;4.81;100.00;102311.38;2568288;30;137326;-40
2022/01/29 03:55:00;;;;;;;;;;;;;;;4.86;100.00;102298.28;2567635;30;138332;-40
2022/01/29 03:57:28;;;;;;;;;;;;;;;4.87;100.00;102307.28;2568233;30;136723;-40
2022/01/29 03:59:56;;;;;;;;;;;;;;;4.85;100.00;102301.97;2567075;30;138520;-40
2022/01/29 04:02:24;;;;;;;;;;;;;;;4.86;100.00;102289.34;2568112;30;137352;-40
2022/01/29 04:04:52;;;;;;;;;;;;;;;4.86;100.00;102294.75;2568790;30;137486;-40
2022/01/29 04:07:20;;;;;;;;;;;;;;;4.86;100.00;102289.34;2568086;30;137239;-40
2022/01/29 04:09:50;;;;;;;;;;;;;;;4.88;100.00;102282.78;2568287;30;137309;-40
2022/01/29 04:12:18;;;;;;;;;;;;;;;4.88;100.00;102288.19;2568229;30;137139;-40
2022/01/29 04:14:46;;;;;;;;;;;;;;;4.89;100.00;102276.38;2568863;30;138297;-40
2022/01/29 04:17:14;;;;;;;;;;;;;;;4.90;100.00;102283.50;2566576;30;137122;-40
2022/01/29 04:19:41;;;;;;;;;;;;;;;4.87;100.00;102281.06;2568187;30;139040;-40
2022/01/29 04:22:09;;;;;;;;;;;;;;;4.87;100.00;102281.06;2567035;30;137301;-40
2022/01/29 04:24:37;;;;;;;;;;;;;;;4.90;100.00;102279.94;2566062;30;139198;-40
2022/01/29 04:27:14;;;;;;;;;;;;;;;4.88;100.00;102288.19;2567906;30;137956;-40
2022/01/29 04:29:54;;;;;;;;;;;;;;;4.89;100.00;102295.31;2565847;30;139422;-40
2022/01/29 04:32:33;;;;;;;;;;;;;;;4.94;100.00;102286.78;2568837;30;138143;-40
2022/01/29 04:35:01;;;;;;;;;;;;;;;4.93;100.00;102286.94;2568188;30;138268;-40
2022/01/29 04:37:29;;;;;;;;;;;;;;;4.87;100.00;102285.63;2568799;30;137309;-40
2022/01/29 04:39:56;;;;;;;;;;;;;;;4.87;100.00;102283.78;2568756;30;138333;-40
2022/01/29 04:42:24;;;;;;;;;;;;;;;4.92;100.00;102291.47;2568623;30;137280;-40
2022/01/29 04:44:52;;;;;;;;;;;;;;;4.88;100.00;102292.75;2569062;30;137224;-40
2022/01/29 04:47:20;;;;;;;;;;;;;;;4.86;100.00;102286.63;2566296;30;137202;-40
2022/01/29 04:49:48;;;;;;;;;;;;;;;4.88;100.00;102281.94;2568805;30;138548;-40
2022/01/29 04:52:15;;;;;;;;;;;;;;;4.84;100.00;102283.22;2567684;30;136756;-40
2022/01/29 04:54:43;;;;;;;;;;;;;;;4.79;100.00;102283.63;2564776;30;138400;-40
2022/01/29 04:57:11;;;;;;;;;;;;;;;4.77;100.00;102266.69;2568787;30;137297;-40
2022/01/29 04:59:39;;;;;;;;;;;;;;;4.77;100.00;102268.50;2567780;30;137398;-40
2022/01/29 05:02:06;;;;;;;;;;;;;;;4.75;100.00;102263.25;2565961;30;137723;-40
2022/01/29 05:04:34;;;;;;;;;;;;;;;4.78;100.00;102264.84;2569820;30;138163;-40
2022/01/29 05:07:03;;;;;;;;;;;;;;;4.73;100.00;102263.38;2569101;30;137928;-40
2022/01/29 05:09:31;;;;;;;;;;;;;;;4.75;100.00;102260.56;2566076;30;138639;-40
2022/01/29 05:12:01;;;;;;;;;;;;;;;4.80;100.00;102258.28;2568766;30;138180;-40
2022/01/29 05:14:44;;;;;;;;;;;;;;;4.80;100.00;102255.56;2567894;30;138495;-40
2022/01/29 05:28:01;;;;;;;;;;;;;;;4.80;100.00;102242.06;2568064;30;137121;-40
2022/01/29 05:30:29;;;;;;;;;;;;;;;4.79;100.00;102239.50;2569314;30;137369;-40
2022/01/29 05:32:56;;;;;;;;;;;;;;;4.80;100.00;102241.22;2569608;30;137791;-40
2022/01/29 05:35:24;;;;;;;;;;;;;;;4.85;100.00;102239.78;2567645;30;137339;-40
2022/01/29 05:37:53;;;;;;;;;;;;;;;4.85;100.00;102225.41;2569796;30;136789;-40
2022/01/29 05:40:20;;;;;;;;;;;;;;;4.82;100.00;102228.41;2566905;30;139448;-40
2022/01/29 05:42:48;;;;;;;;;;;;;;;4.83;100.00;102230.97;2568502;30;136951;-40
2022/01/29 05:45:16;;;;;;;;;;;;;;;4.86;100.00;102219.84;2567914;30;137726;-40
2022/01/29 05:47:45;;;;;;;;;;;;;;;4.84;100.00;102215.59;2566138;30;137154;-40
2022/01/29 05:50:12;;;;;;;;;;;;;;;4.86;100.00;102225.25;2570009;30;139347;-40
2022/01/29 05:52:40;;;;;;;;;;;;;;;4.95;100.00;102225.44;2568213;30;137863;-40
2022/01/29 05:55:08;;;;;;;;;;;;;;;4.95;100.00;102218.16;2569313;30;137144;-39
2022/01/29 05:57:36;;;;;;;;;;;;;;;4.92;100.00;102213.03;2569394;30;137372;-40
2022/01/29 06:00:05;;;;;;;;;;;;;;;4.96;100.00;102213.63;2569408;30;138510;-40
2022/01/29 06:02:41;;;;;;;;;;;;;;;4.98;100.00;102212.47;2568964;30;137071;-40
2022/01/29 06:05:09;;;;;;;;;;;;;;;5.00;100.00;102215.03;2568487;30;138083;-40
2022/01/29 06:07:37;;;;;;;;;;;;;;;5.03;100.00;102214.75;2566519;30;137384;-40
2022/01/29 06:10:05;;;;;;;;;;;;;;;5.06;100.00;102214.47;2569135;30;138474;-40
2022/01/29 06:12:37;;;;;;;;;;;;;;;5.06;100.00;102208.22;2569584;30;137785;-40
2022/01/29 06:15:05;;;;;;;;;;;;;;;5.04;100.00;102209.22;2569103;30;138395;-40
2022/01/29 06:17:32;;;;;;;;;;;;;;;5.12;100.00;102202.22;2568741;30;136894;-40
2022/01/29 06:20:00;;;;;;;;;;;;;;;5.15;100.00;102201.94;2567748;30;139074;-40
2022/01/29 06:22:28;;;;;;;;;;;;;;;5.15;100.00;102201.94;2568642;30;138305;-40
2022/01/29 06:24:56;;;;;;;;;;;;;;;5.17;100.00;102191.84;2569090;30;139022;-40
2022/01/29 06:27:23;;;;;;;;;;;;;;;5.15;100.00;102191.13;2567240;30;137856;-40
2022/01/29 06:29:51;;;;;;;;;;;;;;;5.15;100.00;102183.84;2568827;30;140574;-39
2022/01/29 06:32:19;;;;;;;;;;;;;;;5.17;100.00;102181.00;2568306;30;137987;-40
2022/01/29 06:34:47;;;;;;;;;;;;;;;5.19;100.00;102184.41;2566289;30;138793;-40
2022/01/29 06:37:15;;;;;;;;;;;;;;;5.23;100.00;102185.00;2569581;30;137353;-40
2022/01/29 06:39:43;;;;;;;;;;;;;;;5.21;100.00;102174.31;2568802;30;139175;-40
2022/01/29 06:42:10;;;;;;;;;;;;;;;5.28;100.00;102171.88;2569542;30;136972;-40
2022/01/29 06:44:38;;;;;;;;;;;;;;;5.28;100.00;102172.72;2569404;30;138962;-39
2022/01/29 06:47:06;;;;;;;;;;;;;;;5.31;100.00;102168.88;2568038;30;137019;-40
2022/01/29 06:49:34;;;;;;;;;;;;;;;5.32;100.00;102174.16;2569592;30;138404;-40
2022/01/29 06:52:02;;;;;;;;;;;;;;;5.31;100.00;102177.88;2568132;30;137241;-40
2022/01/29 06:54:29;;;;;;;;;;;;;;;5.30;100.00;102167.19;2568382;30;137343;-40
2022/01/29 06:56:57;;;;;;;;;;;;;;;5.37;100.00;102170.16;2569601;30;137153;-40
2022/01/29 06:59:25;;;;;;;;;;;;;;;5.38;100.00;102175.41;2567831;30;138429;-40
2022/01/29 07:01:53;;;;;;;;;;;;;;;5.43;100.00;102175.00;2569095;30;137036;-40
2022/01/29 07:04:20;;;;;;;;;;;;;;;5.45;100.00;102170.28;2567697;30;138138;-40
2022/01/29 07:06:48;;;;;;;;;;;;;;;5.47;100.00;102165.56;2569390;30;136719;-40
2022/01/29 07:09:16;;;;;;;;;;;;;;;5.48;100.00;102164.56;2569381;30;139198;-40
2022/01/29 07:11:45;;;;;;;;;;;;;;;5.52;100.00;102166.00;2567326;30;137197;-40
2022/01/29 07:14:17;;;;;;;;;;;;;;;5.51;100.00;102158.03;2567591;30;138284;-40
2022/01/29 07:16:45;;;;;;;;;;;;;;;5.49;100.00;102160.88;2568043;30;137205;-40
2022/01/29 07:19:12;;;;;;;;;;;;;;;5.53;100.00;102156.03;2569824;30;137064;-38
2022/01/29 07:21:41;;;;;;;;;;;;;;;5.56;100.00;102156.56;2568607;30;136961;-38
2022/01/29 07:24:09;;;;;;;;;;;;;;;5.55;100.00;102156.72;2568349;30;139053;-37
2022/01/29 07:26:37;;;;;;;;;;;;;;;5.56;100.00;102153.03;2566642;30;137311;-38
2022/01/29 07:29:04;;;;;;;;;;;;;;;5.59;100.00;102153.59;2568377;30;138424;-38
2022/01/29 07:31:35;;;;;;;;;;;;;;;5.64;100.00;102155.00;2568454;30;136936;-38
2022/01/29 07:34:03;;;;;;;;;;;;;;;5.69;100.00;102160.81;2568900;30;137476;-38
2022/01/29 07:36:31;;;;;;;;;;;;;;;5.65;100.00;102144.00;2566092;30;137142;-38
2022/01/29 07:38:59;;;;;;;;;;;;;;;5.67;100.00;102152.84;2566848;30;138534;-38
2022/01/29 07:41:26;;;;;;;;;;;;;;;5.70;100.00;102157.13;2567996;30;137028;-37
2022/01/29 07:43:54;;;;;;;;;;;;;;;5.71;100.00;102150.69;2568801;30;138282;-38
2022/01/29 07:46:22;;;;;;;;;;;;;;;5.76;100.00;102135.72;2567967;30;137053;-37
2022/01/29 07:48:51;;;;;;;;;;;;;;;5.76;100.00;102151.09;2567939;30;138390;-38
2022/01/29 07:51:19;;;;;;;;;;;;;;;5.79;100.00;102139.13;2566995;30;137835;-37
2022/01/29 07:53:46;;;;;;;;;;;;;;;5.85;100.00;102133.13;2569360;30;138038;-37
2022/01/29 07:56:14;;;;;;;;;;;;;;;5.84;100.00;102132.28;2567613;30;137795;-38
2022/01/29 07:58:42;;;;;;;;;;;;;;;5.86;100.00;102135.69;2570109;30;137246;-37
2022/01/29 08:01:12;;;;;;;;;;;;;;;5.89;100.00;102127.25;2569249;30;137882;-37
2022/01/29 08:03:40;;;;;;;;;;;;;;;5.97;100.00;102133.78;2568093;30;138355;-38
2022/01/29 08:06:08;;;;;;;;;;;;;;;5.98;100.00;102128.22;2568317;30;137000;-38
2022/01/29 08:08:35;;;;;;;;;;;;;;;5.98;100.00;102128.22;2567509;30;137220;-38
2022/01/29 08:11:03;;;;;;;;;;;;;;;5.99;100.00;102129.06;2567938;30;137189;-38
2022/01/29 08:13:31;;;;;;;;;;;;;;;5.96;100.00;102115.81;2566671;30;137206;-38
2022/01/29 08:15:59;;;;;;;;;;;;;;;5.99;100.00;102115.50;2565261;30;137225;-38
2022/01/29 08:18:26;;;;;;;;;;;;;;;6.00;100.00;102114.50;2569267;30;138408;-38
2022/01/29 08:20:55;;;;;;;;;;;;;;;6.02;100.00;102115.25;2569145;30;137688;-38
2022/01/29 08:23:22;;;;;;;;;;;;;;;6.02;100.00;102109.81;2568267;30;137181;-38
2022/01/29 08:25:50;;;;;;;;;;;;;;;6.04;100.00;102111.38;2567539;30;137170;-38
2022/01/29 08:28:23;;;;;;;;;;;;;;;6.07;100.00;102107.50;2566991;30;137726;-38
2022/01/29 08:30:51;;;;;;;;;;;;;;;6.07;100.00;102102.09;2567959;30;137328;-37
2022/01/29 08:33:19;;;;;;;;;;;;;;;6.11;100.00;102102.66;2568081;30;139002;-38
2022/01/29 08:35:47;;;;;;;;;;;;;;;6.14;100.00;102097.78;2568796;30;137224;-38
2022/01/29 08:38:15;;;;;;;;;;;;;;;6.09;100.00;102088.41;2568619;30;138222;-38
2022/01/29 08:40:42;;;;;;;;;;;;;;;6.13;100.00;102092.50;2567865;30;136689;-38
2022/01/29 08:43:10;;;;;;;;;;;;;;;6.19;100.00;102098.19;2569807;30;138413;-38
2022/01/29 08:45:38;;;;;;;;;;;;;;;6.22;100.00;102091.59;2566895;30;137390;-38
2022/01/29 08:48:06;;;;;;;;;;;;;;;6.27;100.00;102100.13;2567728;30;138455;-37
2022/01/29 08:50:34;;;;;;;;;;;;;;;6.29;100.00;102092.69;2567845;30;136805;-38
2022/01/29 08:53:02;;;;;;;;;;;;;;;6.31;100.00;102084.41;2567960;30;137187;-38
2022/01/29 08:55:36;;;;;;;;;;;;;;;6.31;100.00;102093.41;2568434;30;138174;-38
2022/01/29 08:58:05;;;;;;;;;;;;;;;6.36;100.00;102087.50;2566052;30;138811;-38
2022/01/29 09:00:32;;;;;;;;;;;;;;;6.40;100.00;102083.50;2567195;30;137742;-37
2022/01/29 09:03:01;;;;;;;;;;;;;;;6.40;100.00;102085.34;2567975;30;137136;-38
2022/01/29 09:05:28;;;;;;;;;;;;;;;6.41;100.00;102085.19;2568175;30;137183;-38
2022/01/29 09:07:57;;;;;;;;;;;;;;;6.44;100.00;102074.03;2568504;30;138323;-38
2022/01/29 09:10:26;;;;;;;;;;;;;;;6.49;100.00;102078.97;2566532;30;137859;-37
2022/01/29 09:12:54;;;;;;;;;;;;;;;6.47;100.00;102073.72;2569593;30;138412;-38
2022/01/29 09:15:22;;;;;;;;;;;;;;;6.51;100.00;102068.00;2568121;30;137032;-38
2022/01/29 09:17:50;;;;;;;;;;;;;;;6.51;100.00;102055.31;2568483;30;137400;-37
2022/01/29 09:20:17;;;;;;;;;;;;;;;6.52;100.00;102059.72;2567767;30;137042;-38
2022/01/29 09:22:46;;;;;;;;;;;;;;;6.55;100.00;102058.53;2567977;30;137376;-38
2022/01/29 09:25:13;;;;;;;;;;;;;;;6.62;100.00;102041.50;2567204;30;136722;-38
2022/01/29 09:27:41;;;;;;;;;;;;;;;6.68;100.00;102041.88;2565101;30;137770;-38
2022/01/29 09:30:09;;;;;;;;;;;;;;;6.73;100.00;102040.41;2567646;30;137871;-38
2022/01/29 09:32:37;;;;;;;;;;;;;;;6.76;100.00;102045.50;2567292;30;138497;-38
2022/01/29 09:35:05;;;;;;;;;;;;;;;6.79;100.00;102044.34;2567104;30;137762;-38
2022/01/29 09:37:33;;;;;;;;;;;;;;;6.84;100.00;102033.88;2567434;30;138443;-38
2022/01/29 09:40:01;;;;;;;;;;;;;;;6.87;100.00;102044.41;2568540;30;137510;-38
2022/01/29 09:42:29;;;;;;;;;;;;;;;6.90;100.00;102035.09;2567959;30;138987;-38
2022/01/29 09:44:57;;;;;;;;;;;;;;;6.93;100.00;102034.78;2568691;30;136928;-37
2022/01/29 09:47:25;;;;;;;;;;;;;;;6.95;100.00;102032.75;2567872;30;138862;-37
2022/01/29 09:49:54;;;;;;;;;;;;;;;6.99;100.00;102031.44;2566039;30;137126;-38
2022/01/29 09:52:21;;;;;;;;;;;;;;;7.04;100.00;102037.22;2565391;30;138961;-38
2022/01/29 09:54:49;;;;;;;;;;;;;;;7.02;100.00;102039.25;2568033;30;137128;-38
2022/01/29 09:57:17;;;;;;;;;;;;;;;7.04;100.00;102042.66;2567383;30;138257;-38
2022/01/29 09:59:47;;;;;;;;;;;;;;;7.11;100.00;102042.00;2568929;30;137064;-38
2022/01/29 10:02:16;;;;;;;;;;;;;;;7.11;100.00;102045.59;2567688;30;139359;-38
2022/01/29 10:04:45;;;;;;;;;;;;;;;7.16;100.00;102050.50;2568947;30;136928;-37
2022/01/29 10:07:13;;;;;;;;;;;;;;;7.18;100.00;102043.09;2568778;30;138434;-38
2022/01/29 10:09:41;;;;;;;;;;;;;;;7.22;100.00;102051.75;2567153;30;137104;-38
2022/01/29 10:12:20;;;;;;;;;;;;;;;7.27;100.00;102050.25;2566418;30;139530;-37
2022/01/29 10:14:49;;;;;;;;;;;;;;;7.30;100.00;102041.78;2567596;30;137170;-37
2022/01/29 10:17:35;;;;;;;;;;;;;;;7.33;100.00;102055.03;2568120;30;138478;-38
2022/01/29 10:20:26;;;;;;;;;;;;;;;7.34;100.00;102045.88;2568197;30;137208;-38
2022/01/29 10:22:55;;;;;;;;;;;;;;;7.34;100.00;102043.19;2565974;30;139540;-38
2022/01/29 10:25:23;;;;;;;;;;;;;;;7.37;100.00;102036.59;2568793;30;137927;-38
2022/01/29 10:28:06;;;;;;;;;;;;;;;7.38;100.00;102037.41;2569912;30;138106;-38
2022/01/29 10:30:34;;;;;;;;;;;;;;;7.41;100.00;102034.38;2568626;30;137234;-38
2022/01/29 10:33:16;;;;;;;;;;;;;;;7.44;100.00;102024.06;2569390;30;139056;-38
2022/01/29 10:35:45;;;;;;;;;;;;;;;7.48;100.00;102014.56;2566354;30;137095;-38
2022/01/29 10:38:13;;;;;;;;;;;;;;;7.54;100.00;102004.91;2568023;30;138373;-38
2022/01/29 10:40:41;;;;;;;;;;;;;;;7.59;100.00;102005.28;2568751;30;137941;-38
2022/01/29 10:43:09;;;;;;;;;;;;;;;7.60;100.00;102006.97;2567647;30;138852;-38
2022/01/29 10:45:37;;;;;;;;;;;;;;;7.67;100.00;101992.72;2568565;30;138044;-38
2022/01/29 10:48:06;;;;;;;;;;;;;;;7.63;100.00;101997.66;2569006;30;139007;-37
2022/01/29 10:50:34;;;;;;;;;;;;;;;7.65;100.00;102000.19;2568395;30;136897;-38
2022/01/29 10:53:20;;;;;;;;;;;;;;;7.62;100.00;101996.78;2568575;30;138179;-38
2022/01/29 10:55:57;;;;;;;;;;;;;;;7.68;100.00;101992.56;2568435;30;137882;-38
2022/01/29 10:58:25;;;;;;;;;;;;;;;7.72;100.00;102001.25;2568857;30;138434;-38
2022/01/29 11:01:13;;;;;;;;;;;;;;;7.72;100.00;101987.69;2567816;30;137010;-37
2022/01/29 11:03:41;;;;;;;;;;;;;;;7.68;100.00;101984.44;2568008;30;139182;-37
2022/01/29 11:06:11;;;;;;;;;;;;;;;7.66;100.00;101982.88;2567978;30;137005;-38
2022/01/29 11:08:39;;;;;;;;;;;;;;;7.66;100.00;101969.28;2567337;30;137848;-38
2022/01/29 11:11:08;;;;;;;;;;;;;;;7.66;100.00;101975.59;2568530;30;137208;-38
2022/01/29 11:13:48;;;;;;;;;;;;;;;7.67;100.00;101965.56;2569100;30;138285;-38
2022/01/29 11:16:16;;;;;;;;;;;;;;;7.70;100.00;101957.13;2567860;30;136812;-38
2022/01/29 11:18:44;;;;;;;;;;;;;;;7.72;100.00;101939.63;2567605;30;138200;-38
2022/01/29 11:21:12;;;;;;;;;;;;;;;7.74;100.00;101948.44;2567387;30;137163;-38
2022/01/29 11:23:40;;;;;;;;;;;;;;;7.74;100.00;101939.47;2568844;30;138284;-38
2022/01/29 11:26:08;;;;;;;;;;;;;;;7.74;100.00;101942.19;2568939;30;137033;-38
2022/01/29 11:28:36;;;;;;;;;;;;;;;7.76;100.00;101942.84;2567180;30;138517;-38
2022/01/29 11:31:09;;;;;;;;;;;;;;;7.75;100.00;101930.28;2568914;30;136694;-38
2022/01/29 11:33:56;;;;;;;;;;;;;;;7.73;100.00;101927.72;2568383;30;138900;-38
2022/01/29 11:36:42;;;;;;;;;;;;;;;7.80;100.00;101927.91;2569553;30;137624;-38
2022/01/29 11:39:20;;;;;;;;;;;;;;;7.86;100.00;101923.69;2568709;30;138416;-38
2022/01/29 11:42:06;;;;;;;;;;;;;;;7.86;100.00;101919.09;2565968;30;137507;-38
2022/01/29 11:44:34;;;;;;;;;;;;;;;7.88;100.00;101922.50;2568369;30;138314;-38
2022/01/29 11:47:20;;;;;;;;;;;;;;;7.90;100.00;101917.72;2568421;30;137225;-38
2022/01/29 11:49:48;;;;;;;;;;;;;;;7.95;100.00;101906.38;2568330;30;138145;-38
2022/01/29 11:52:22;;;;;;;;;;;;;;;8.04;100.00;101908.06;2567578;30;136823;-38
2022/01/29 11:55:02;;;;;;;;;;;;;;;8.13;100.00;101899.94;2569673;30;137291;-38
2022/01/29 11:57:30;;;;;;;;;;;;;;;8.24;100.00;101902.28;2569280;30;137059;-38
2022/01/29 12:00:17;;;;;;;;;;;;;;;8.30;100.00;101889.91;2568136;30;137249;-38
2022/01/29 12:02:45;;;;;;;;;;;;;;;8.39;100.00;101883.41;2568800;30;136966;-37
2022/01/29 12:05:51;;;;;;;;;;;;;;;8.44;100.00;101881.03;2566923;30;137612;-38
2022/01/29 12:08:20;;;;;;;;;;;;;;;8.52;100.00;101882.91;2567594;30;137307;-38
2022/01/29 12:10:57;;;;;;;;;;;;;;;8.51;100.00;101864.06;2569013;30;139388;-38
2022/01/29 12:13:25;;;;;;;;;;;;;;;8.52;100.00;101860.31;2567007;30;137159;-38
2022/01/29 12:15:57;;;;;;;;;;;;;;;8.51;100.00;101864.91;2568031;30;138344;-38
2022/01/29 12:18:27;;;;;;;;;;;;;;;8.51;100.00;101867.63;2566356;30;138050;-38
2022/01/29 12:20:55;;;;;;;;;;;;;;;8.54;100.00;101858.28;2566263;30;137987;-38
2022/01/29 12:23:23;;;;;;;;;;;;;;;8.53;100.00;101851.13;2570367;30;137138;-38
2022/01/29 12:25:53;;;;;;;;;;;;;;;8.54;100.00;101847.41;2567393;30;139565;-38
2022/01/29 12:28:21;;;;;;;;;;;;;;;8.52;100.00;101841.28;2567915;30;137318;-38
2022/01/29 12:30:49;;;;;;;;;;;;;;;8.54;100.00;101826.47;2568565;30;138453;-38
2022/01/29 12:33:19;;;;;;;;;;;;;;;8.55;100.00;101808.28;2568428;30;137004;-38
2022/01/29 12:35:54;;;;;;;;;;;;;;;8.59;100.00;101826.78;2566615;30;137325;-38
2022/01/29 12:38:26;;;;;;;;;;;;;;;8.63;100.00;101819.13;2569689;30;137116;-38
2022/01/29 12:40:58;;;;;;;;;;;;;;;8.70;100.00;101820.13;2567738;30;137790;-39
2022/01/29 12:43:29;;;;;;;;;;;;;;;8.75;100.00;101828.63;2569261;30;137111;-38
2022/01/29 12:46:07;;;;;;;;;;;;;;;8.83;100.00;101824.19;2567067;30;138193;-38
2022/01/29 12:48:35;;;;;;;;;;;;;;;8.82;100.00;101834.19;2568704;30;137010;-38
2022/01/29 12:51:04;;;;;;;;;;;;;;;8.82;100.00;101825.19;2568615;30;138411;-38